Aviation Digital Data Service (ADDS)

Output produced by METARs form (0009 UTC 26 June 2017)
found at http://aviationweather.gov/adds/metars/
 
KBHB 252320Z 2600/2624 21009KT P6SM SCT070 
     FM260500 22006KT P6SM BKN100 
     FM261500 27010KT P6SM SCT120